Time;durP1;ratioP1;P1;durP2;ratioP2;P2;SDS_P1;SDS_P2;PMS_P1;PMS_P2;Temp;Humidity;BMP_temperature;BMP_pressure;BME280_temperature;BME280_humidity;BME280_pressure;Samples;Min_cycle;Max_cycle;Signal;HPM_P1;HPM_P2
2024/01/20 00:00:49;;;;;;;0.60;0.50;;;;;;;8.67;100.00;94830.16;5135679;27;20499;-58
2024/01/20 00:03:18;;;;;;;0.70;0.60;;;;;;;8.81;100.00;94837.22;5131370;27;20462;-57
2024/01/20 00:05:48;;;;;;;1.03;0.73;;;;;;;8.60;100.00;94793.44;5125140;27;20437;-57
2024/01/20 00:08:17;;;;;;;0.60;0.53;;;;;;;8.93;100.00;94832.41;5135385;27;20430;-57
2024/01/20 00:10:46;;;;;;;0.40;0.30;;;;;;;8.94;100.00;94844.59;5136055;27;20433;-57
2024/01/20 00:13:14;;;;;;;0.40;0.30;;;;;;;8.79;100.00;94843.84;5135667;27;20462;-57
2024/01/20 00:15:43;;;;;;;1.23;1.23;;;;;;;8.44;100.00;94831.53;5135724;27;20526;-57
2024/01/20 00:18:12;;;;;;;0.97;0.97;;;;;;;8.23;100.00;94843.13;5135167;27;20430;-57
2024/01/20 00:20:42;;;;;;;2.00;1.50;;;;;;;8.09;100.00;94855.28;5134922;27;20507;-57
2024/01/20 00:23:13;;;;;;;13.43;1.03;;;;;;;7.96;100.00;94856.59;5135314;27;20479;-57
2024/01/20 00:25:42;;;;;;;2.73;1.70;;;;;;;7.90;100.00;94854.22;5134973;27;20430;-56
2024/01/20 00:28:11;;;;;;;0.50;0.30;;;;;;;7.98;100.00;94861.63;5134889;27;20824;-58
2024/01/20 00:30:39;;;;;;;0.53;0.50;;;;;;;8.04;100.00;94856.09;5134392;27;20457;-57
2024/01/20 00:33:09;;;;;;;0.90;0.50;;;;;;;8.02;100.00;94842.34;5135480;27;20439;-57
2024/01/20 00:35:42;;;;;;;1.17;1.00;;;;;;;7.88;100.00;94824.66;5135219;27;20438;-57
2024/01/20 00:38:12;;;;;;;0.73;0.70;;;;;;;8.17;100.00;94881.16;5135549;27;20434;-58
2024/01/20 00:40:41;;;;;;;1.97;0.93;;;;;;;8.09;100.00;94877.19;5135368;27;20495;-57
2024/01/20 00:43:10;;;;;;;4.27;1.77;;;;;;;8.18;100.00;94874.81;5135767;27;20441;-58
2024/01/20 00:45:38;;;;;;;5.90;1.07;;;;;;;8.17;100.00;94878.53;5133625;27;20478;-57
2024/01/20 00:48:07;;;;;;;0.70;0.70;;;;;;;7.44;100.00;94825.16;5135445;27;20946;-58
2024/01/20 00:50:36;;;;;;;1.40;1.30;;;;;;;7.69;100.00;94890.31;5134819;27;20434;-57
2024/01/20 00:53:05;;;;;;;1.03;1.00;;;;;;;7.52;100.00;94895.03;5134633;27;20481;-57
2024/01/20 00:55:35;;;;;;;1.13;1.03;;;;;;;7.75;100.00;94888.50;5134764;27;20449;-57
2024/01/20 00:58:04;;;;;;;22.37;1.33;;;;;;;7.80;100.00;94885.88;5134961;27;20439;-57
2024/01/20 01:00:33;;;;;;;0.60;0.60;;;;;;;7.96;100.00;94893.56;5108661;27;20446;-57
2024/01/20 01:03:02;;;;;;;1.80;0.93;;;;;;;7.93;100.00;94904.63;5134409;27;20525;-57
2024/01/20 01:05:30;;;;;;;1.43;1.27;;;;;;;8.10;100.00;94899.09;5134863;27;20847;-57
2024/01/20 01:07:59;;;;;;;2.10;1.33;;;;;;;8.22;100.00;94899.63;5134770;27;20946;-57
2024/01/20 01:10:28;;;;;;;0.60;0.60;;;;;;;7.98;100.00;94851.06;5135301;27;20430;-58
2024/01/20 01:12:58;;;;;;;0.83;0.83;;;;;;;8.13;100.00;94878.25;5134331;27;20499;-58
2024/01/20 01:15:28;;;;;;;0.50;0.50;;;;;;;8.34;100.00;94892.28;5135027;27;20449;-58
2024/01/20 01:17:56;;;;;;;0.73;0.73;;;;;;;8.42;100.00;94883.81;5134246;27;20442;-57
2024/01/20 01:20:25;;;;;;;0.40;0.30;;;;;;;8.52;100.00;94878.53;5134960;27;20534;-57
2024/01/20 01:22:54;;;;;;;1.70;1.60;;;;;;;8.31;100.00;94887.50;5134753;27;20435;-57
2024/01/20 01:25:23;;;;;;;2.93;1.90;;;;;;;8.04;100.00;94886.97;5134649;27;20499;-57
2024/01/20 01:27:51;;;;;;;1.80;1.03;;;;;;;8.18;100.00;94888.00;5134207;27;20439;-57
2024/01/20 01:30:21;;;;;;;0.87;0.87;;;;;;;8.32;100.00;94884.59;5134826;27;20463;-57
2024/01/20 01:32:50;;;;;;;0.50;0.40;;;;;;;8.41;100.00;94886.72;5134257;27;20442;-57
2024/01/20 01:35:19;;;;;;;1.10;1.07;;;;;;;8.32;100.00;94860.84;5134358;27;20458;-57
2024/01/20 01:37:47;;;;;;;0.80;0.50;;;;;;;8.57;100.00;94877.72;5133756;27;20472;-57
2024/01/20 01:40:16;;;;;;;0.67;0.67;;;;;;;8.17;100.00;94801.97;5134173;27;20655;-57
2024/01/20 01:42:45;;;;;;;0.90;0.77;;;;;;;8.69;100.00;94879.00;5107653;27;20438;-58
2024/01/20 01:45:13;;;;;;;1.30;1.30;;;;;;;8.65;100.00;94875.31;5134534;27;20498;-58
2024/01/20 01:47:43;;;;;;;0.40;0.40;;;;;;;8.63;100.00;94874.78;5134565;27;20434;-58
2024/01/20 01:50:12;;;;;;;0.33;0.30;;;;;;;8.76;100.00;94868.94;5133354;27;20438;-57
2024/01/20 01:52:42;;;;;;;1.00;0.90;;;;;;;8.76;100.00;94862.88;5133823;27;20485;-57
2024/01/20 01:55:11;;;;;;;2.30;0.63;;;;;;;8.74;100.00;94871.06;5131417;27;20501;-56
2024/01/20 01:57:40;;;;;;;0.50;0.30;;;;;;;8.77;100.00;94859.19;5123214;27;20967;-58
2024/01/20 02:00:09;;;;;;;0.63;0.60;;;;;;;8.81;100.00;94862.84;5133107;27;20518;-58
2024/01/20 02:02:38;;;;;;;1.27;1.17;;;;;;;8.79;100.00;94863.13;5133628;27;20472;-58
2024/01/20 02:05:10;;;;;;;7.07;1.97;;;;;;;8.78;100.00;94864.19;5133647;27;20840;-58
2024/01/20 02:07:39;;;;;;;0.80;0.50;;;;;;;8.81;100.00;94855.72;5133928;27;20430;-59
2024/01/20 02:10:11;;;;;;;1.37;0.50;;;;;;;8.75;100.00;94850.72;5133064;27;20487;-58
2024/01/20 02:12:40;;;;;;;1.57;0.93;;;;;;;8.76;100.00;94862.88;5133631;27;20442;-58
2024/01/20 02:15:10;;;;;;;0.40;0.30;;;;;;;8.66;100.00;94857.59;5133791;27;20862;-58
2024/01/20 02:17:52;;;;;;;0.53;0.53;;;;;;;8.57;100.00;94853.94;5133584;27;20515;-57
2024/01/20 02:20:24;;;;;;;0.67;0.67;;;;;;;8.43;100.00;94874.81;5133682;27;20438;-58
2024/01/20 02:22:54;;;;;;;1.33;1.33;;;;;;;8.09;100.00;94861.38;5133347;27;20492;-58
2024/01/20 02:25:22;;;;;;;1.47;0.50;;;;;;;7.91;100.00;94861.09;5133240;27;20466;-58
2024/01/20 02:27:51;;;;;;;4.03;2.27;;;;;;;7.79;100.00;94861.34;5132474;27;20902;-58
2024/01/20 02:30:20;;;;;;;2.93;2.10;;;;;;;7.97;100.00;94865.31;5132894;27;20430;-58
2024/01/20 02:32:49;;;;;;;1.30;1.30;;;;;;;7.79;100.00;94811.22;5133351;27;20499;-58
2024/01/20 02:35:19;;;;;;;6.23;1.47;;;;;;;8.09;100.00;94855.28;5133471;27;20446;-58
2024/01/20 02:37:48;;;;;;;3.30;2.60;;;;;;;8.17;100.00;94866.09;5132837;27;20445;-58
2024/01/20 02:40:18;;;;;;;1.00;0.90;;;;;;;8.22;100.00;94863.44;5133100;27;20792;-57
2024/01/20 02:42:47;;;;;;;9.83;1.90;;;;;;;8.18;100.00;94862.41;5107042;27;20441;-58
2024/01/20 02:45:15;;;;;;;5.40;0.70;;;;;;;8.31;100.00;94850.56;5133077;27;20535;-57
2024/01/20 02:47:44;;;;;;;1.23;1.23;;;;;;;8.37;100.00;94846.06;5133069;27;20513;-58
2024/01/20 02:50:13;;;;;;;4.37;1.30;;;;;;;8.33;100.00;94859.00;5132624;27;20462;-58
2024/01/20 02:52:42;;;;;;;1.40;1.10;;;;;;;8.32;100.00;94867.97;5133154;27;20893;-58
2024/01/20 02:55:11;;;;;;;0.80;0.60;;;;;;;8.42;100.00;94861.91;5132195;27;20447;-58
2024/01/20 02:57:41;;;;;;;4.13;1.43;;;;;;;8.40;100.00;94864.00;5132377;27;20961;-58
2024/01/20 03:00:11;;;;;;;3.63;1.30;;;;;;;8.52;100.00;94853.97;5131992;27;20458;-59
2024/01/20 03:02:39;;;;;;;5.90;1.37;;;;;;;8.61;100.00;94857.63;5132879;27;20801;-58
2024/01/20 03:05:08;;;;;;;1.03;1.03;;;;;;;8.56;100.00;94863.72;5132319;27;20481;-59
2024/01/20 03:07:36;;;;;;;0.60;0.60;;;;;;;8.53;100.00;94858.97;5131976;27;20431;-58
2024/01/20 03:10:06;;;;;;;2.10;1.10;;;;;;;8.60;100.00;94846.25;5132663;27;20778;-59
2024/01/20 03:12:35;;;;;;;2.10;0.87;;;;;;;8.42;100.00;94840.78;5128845;27;20457;-59
2024/01/20 03:15:07;;;;;;;5.50;2.20;;;;;;;8.19;100.00;94779.53;5128976;27;20954;-59
2024/01/20 03:17:36;;;;;;;1.50;0.67;;;;;;;8.56;100.00;94837.31;5121510;27;20467;-59
2024/01/20 03:20:05;;;;;;;2.00;1.37;;;;;;;8.60;100.00;94840.97;5123297;27;20431;-58
2024/01/20 03:22:34;;;;;;;2.30;0.70;;;;;;;8.75;100.00;94848.09;5131953;27;20431;-58
2024/01/20 03:25:02;;;;;;;5.60;1.40;;;;;;;8.69;100.00;94841.22;5132188;27;20442;-59
2024/01/20 03:27:31;;;;;;;1.53;1.43;;;;;;;7.98;100.00;94734.94;5132446;28;20510;-58
2024/01/20 03:30:00;;;;;;;14.70;1.57;;;;;;;8.83;100.00;94882.66;5132681;28;20520;-59
2024/01/20 03:32:30;;;;;;;2.60;2.50;;;;;;;8.78;100.00;94863.38;5132205;28;20434;-58
2024/01/20 03:34:58;;;;;;;1.00;0.80;;;;;;;8.81;100.00;94861.00;5132296;28;20438;-58
2024/01/20 03:37:29;;;;;;;1.53;1.37;;;;;;;8.89;100.00;94863.09;5132247;28;20443;-59
2024/01/20 03:39:58;;;;;;;2.00;1.00;;;;;;;8.42;100.00;94793.25;5132254;28;20438;-58
2024/01/20 03:42:28;;;;;;;1.40;1.30;;;;;;;9.02;100.00;94876.81;5131673;27;20461;-58
2024/01/20 03:44:57;;;;;;;0.50;0.50;;;;;;;9.09;100.00;94877.31;5132180;28;20438;-59
2024/01/20 03:47:25;;;;;;;5.50;1.37;;;;;;;9.14;100.00;94872.00;5132322;27;20492;-59
2024/01/20 03:49:56;;;;;;;1.00;1.00;;;;;;;9.14;100.00;94858.78;5132186;28;20503;-59
2024/01/20 03:52:24;;;;;;;0.67;0.57;;;;;;;9.04;100.00;94864.09;5104977;28;20434;-59
2024/01/20 03:54:53;;;;;;;1.23;1.17;;;;;;;8.99;100.00;94857.00;5131988;27;20521;-58
2024/01/20 03:57:21;;;;;;;1.43;1.33;;;;;;;9.15;100.00;94849.78;5132255;27;20430;-59
2024/01/20 03:59:50;;;;;;;0.60;0.60;;;;;;;9.25;100.00;94860.31;5131926;27;20868;-60
2024/01/20 04:02:19;;;;;;;0.60;0.60;;;;;;;9.35;100.00;94860.28;5131985;27;20436;-59
2024/01/20 04:04:49;;;;;;;1.00;1.00;;;;;;;9.37;100.00;94866.06;5131706;28;20442;-59
2024/01/20 04:07:19;;;;;;;4.80;1.13;;;;;;;9.31;100.00;94872.47;5132056;27;20985;-59
2024/01/20 04:09:47;;;;;;;0.80;0.60;;;;;;;8.75;100.00;94824.31;5131795;27;20969;-59
2024/01/20 04:12:16;;;;;;;1.90;0.77;;;;;;;8.87;100.00;94881.09;5131846;27;20492;-59
2024/01/20 04:14:44;;;;;;;1.93;1.83;;;;;;;8.54;100.00;94847.34;5131261;27;20439;-58
2024/01/20 04:17:13;;;;;;;2.60;2.40;;;;;;;8.64;100.00;94892.22;5131994;27;20480;-57
2024/01/20 04:19:42;;;;;;;2.30;2.10;;;;;;;8.60;100.00;94893.03;5134142;27;20521;-58
2024/01/20 04:22:10;;;;;;;5.87;2.33;;;;;;;8.67;100.00;94896.97;5135787;27;20437;-57
2024/01/20 04:24:40;;;;;;;1.93;1.83;;;;;;;8.57;100.00;94890.91;5135127;27;20439;-58
2024/01/20 04:27:09;;;;;;;3.50;0.93;;;;;;;8.39;100.00;94902.03;5135090;27;20502;-58
2024/01/20 04:29:38;;;;;;;2.00;1.90;;;;;;;8.00;100.00;94870.06;5135401;27;20438;-58
2024/01/20 04:32:07;;;;;;;14.33;3.50;;;;;;;7.33;100.00;94863.13;5135157;27;20839;-57
2024/01/20 04:34:35;;;;;;;2.40;2.30;;;;;;;7.50;100.00;94911.13;5135570;27;20442;-58
2024/01/20 04:37:04;;;;;;;1.77;1.67;;;;;;;7.73;100.00;94909.06;5133787;27;20445;-57
2024/01/20 04:39:33;;;;;;;1.23;1.17;;;;;;;8.06;100.00;94912.03;5135412;27;20809;-59
2024/01/20 04:42:04;;;;;;;1.03;1.00;;;;;;;8.05;100.00;94907.00;5134900;27;20930;-58
2024/01/20 04:44:32;;;;;;;0.83;0.83;;;;;;;7.77;100.00;94881.91;5135766;27;20438;-59
2024/01/20 04:47:01;;;;;;;0.93;0.83;;;;;;;8.10;100.00;94915.72;5134331;27;20474;-57
2024/01/20 04:49:29;;;;;;;2.70;1.63;;;;;;;8.04;100.00;94924.69;5135046;27;20434;-58
2024/01/20 04:52:01;;;;;;;1.00;0.90;;;;;;;8.22;100.00;94926.81;5135128;27;20435;-58
2024/01/20 04:54:30;;;;;;;4.60;1.20;;;;;;;8.56;100.00;94921.81;5134965;27;20493;-58
2024/01/20 04:56:59;;;;;;;0.43;0.43;;;;;;;8.73;100.00;94919.69;5134757;27;20435;-58
2024/01/20 04:59:29;;;;;;;0.60;0.60;;;;;;;8.74;98.64;94912.53;5135106;27;20937;-58
2024/01/20 05:01:58;;;;;;;0.70;0.70;;;;;;;8.83;98.65;94926.78;5134755;27;20433;-58
2024/01/20 05:04:26;;;;;;;1.63;1.53;;;;;;;8.41;99.58;94882.22;5135569;27;20430;-59
2024/01/20 05:06:55;;;;;;;0.40;0.40;;;;;;;8.50;100.00;94928.16;5134664;27;20478;-58
2024/01/20 05:09:24;;;;;;;0.60;0.47;;;;;;;8.21;100.00;94871.66;5134984;27;20434;-58
2024/01/20 05:11:53;;;;;;;0.93;0.87;;;;;;;8.07;100.00;94854.78;5127791;27;20516;-59
2024/01/20 05:14:21;;;;;;;5.43;1.10;;;;;;;8.26;100.00;94927.91;5132722;27;20821;-58
2024/01/20 05:16:51;;;;;;;0.63;0.63;;;;;;;8.43;100.00;94926.84;5134646;27;20439;-58
2024/01/20 05:19:20;;;;;;;0.50;0.50;;;;;;;8.32;100.00;94924.19;5134366;27;20446;-58
2024/01/20 05:21:49;;;;;;;1.63;0.70;;;;;;;8.33;100.00;94922.34;5134537;27;20820;-58
2024/01/20 05:24:18;;;;;;;2.80;2.70;;;;;;;8.40;100.00;94930.78;5134053;27;20957;-59
2024/01/20 05:26:47;;;;;;;4.10;1.57;;;;;;;8.49;100.00;94928.44;5134488;27;20831;-58
2024/01/20 05:29:15;;;;;;;3.30;2.60;;;;;;;8.57;100.00;94926.06;5107008;27;20533;-59
2024/01/20 05:31:44;;;;;;;5.13;1.40;;;;;;;8.40;100.00;94930.78;5132843;27;20449;-57
2024/01/20 05:34:14;;;;;;;3.93;2.80;;;;;;;8.34;100.00;94931.88;5134095;27;20806;-59
2024/01/20 05:36:43;;;;;;;2.30;2.17;;;;;;;8.28;100.00;94941.63;5134175;27;20515;-58
2024/01/20 05:39:11;;;;;;;2.00;1.90;;;;;;;8.11;100.00;94943.72;5133932;27;20426;-59
2024/01/20 05:41:40;;;;;;;1.43;1.33;;;;;;;8.18;100.00;94944.25;5134099;27;20480;-58
2024/01/20 05:44:09;;;;;;;6.77;1.77;;;;;;;8.25;100.00;94951.88;5133845;27;20437;-59
2024/01/20 05:46:40;;;;;;;1.30;1.20;;;;;;;8.29;100.00;94961.72;5133918;27;20981;-58
2024/01/20 05:49:09;;;;;;;3.13;1.50;;;;;;;8.43;100.00;94967.25;5133454;27;20430;-58
2024/01/20 05:51:39;;;;;;;1.60;1.50;;;;;;;8.35;100.00;94957.19;5132946;27;20927;-57
2024/01/20 05:54:08;;;;;;;1.67;1.57;;;;;;;8.37;100.00;94962.25;5133620;27;20849;-57
2024/01/20 05:56:37;;;;;;;0.73;0.50;;;;;;;8.41;100.00;94966.72;5133529;27;21002;-58
2024/01/20 05:59:05;;;;;;;1.60;1.50;;;;;;;8.39;100.00;94962.75;5133585;27;20533;-57
2024/01/20 06:01:34;;;;;;;0.80;0.70;;;;;;;8.23;100.00;94960.09;5133613;27;20448;-57
2024/01/20 06:04:04;;;;;;;1.17;1.17;;;;;;;8.25;100.00;94928.13;5133853;27;20438;-57
2024/01/20 06:06:32;;;;;;;5.00;1.07;;;;;;;8.53;100.00;94958.53;5133468;27;20494;-57
2024/01/20 06:09:03;;;;;;;4.73;1.63;;;;;;;8.44;100.00;94939.78;5133531;27;20442;-58
2024/01/20 06:11:32;;;;;;;0.83;0.83;;;;;;;8.69;100.00;94955.63;5119433;27;21042;-57
2024/01/20 06:14:01;;;;;;;1.43;1.37;;;;;;;8.70;100.00;94962.47;5133421;27;20437;-57
2024/01/20 06:16:29;;;;;;;3.07;2.23;;;;;;;8.79;100.00;94960.91;5132954;27;20461;-58
2024/01/20 06:18:58;;;;;;;4.10;1.13;;;;;;;8.74;100.00;94958.25;5120575;27;20447;-58
2024/01/20 06:21:27;;;;;;;1.43;1.33;;;;;;;8.63;100.00;94982.28;5120643;27;20442;-58
2024/01/20 06:23:56;;;;;;;2.20;2.00;;;;;;;8.41;100.00;94939.50;5130756;27;20430;-58
2024/01/20 06:26:26;;;;;;;3.70;1.83;;;;;;;8.84;100.00;94960.88;5112237;27;20526;-58
2024/01/20 06:28:54;;;;;;;1.77;1.30;;;;;;;8.84;97.29;94971.47;5116458;27;20484;-58
2024/01/20 06:31:24;;;;;;;4.10;0.40;;;;;;;9.01;98.65;94971.16;5120810;27;20845;-58
2024/01/20 06:33:53;;;;;;;1.00;0.90;;;;;;;8.64;93.35;94978.59;5131086;27;20914;-57
2024/01/20 06:36:24;;;;;;;0.70;0.70;;;;;;;8.74;91.23;94981.25;5132489;27;20430;-58
2024/01/20 06:38:53;;;;;;;0.60;0.50;;;;;;;8.85;93.44;94988.88;5131695;27;20522;-58
2024/01/20 06:41:22;;;;;;;0.40;0.30;;;;;;;8.66;95.14;94989.69;5131278;27;20526;-58
2024/01/20 06:43:52;;;;;;;1.17;0.70;;;;;;;8.60;90.48;94991.53;5117178;27;20923;-58
2024/01/20 06:46:21;;;;;;;0.60;0.60;;;;;;;8.64;87.23;94992.63;5133012;27;20499;-58
2024/01/20 06:48:50;;;;;;;2.40;0.63;;;;;;;8.93;91.43;94995.47;5132796;27;20473;-58
2024/01/20 06:51:22;;;;;;;0.50;0.50;;;;;;;8.56;87.15;94977.28;5132698;27;20466;-58
2024/01/20 06:53:57;;;;;;;1.73;0.53;;;;;;;8.59;89.47;94994.47;5132541;27;20462;-58
2024/01/20 06:56:26;;;;;;;0.53;0.40;;;;;;;8.64;87.82;95003.19;5132367;27;20434;-58
2024/01/20 06:58:56;;;;;;;0.60;0.30;;;;;;;8.68;85.63;94992.84;5131432;27;20982;-57
2024/01/20 07:01:25;;;;;;;0.43;0.30;;;;;;;9.00;88.76;95003.94;5129691;27;20438;-57
2024/01/20 07:03:54;;;;;;;0.37;0.30;;;;;;;8.91;83.01;95003.69;5132432;27;20442;-59
2024/01/20 07:06:24;;;;;;;0.80;0.77;;;;;;;8.43;80.52;94998.94;5132944;27;20441;-57
2024/01/20 07:08:54;;;;;;;0.80;0.80;;;;;;;9.00;87.83;95016.38;5132126;27;20478;-58
2024/01/20 07:11:25;;;;;;;0.40;0.33;;;;;;;8.63;81.28;95025.34;5132487;27;20439;-58
2024/01/20 07:13:54;;;;;;;0.87;0.40;;;;;;;8.38;80.67;95027.19;5131976;27;20945;-58
2024/01/20 07:16:24;;;;;;;0.63;0.63;;;;;;;8.65;82.83;95048.88;5132234;27;20521;-58
2024/01/20 07:18:52;;;;;;;0.70;0.70;;;;;;;8.50;80.56;95039.06;5132150;27;20461;-59
2024/01/20 07:21:24;;;;;;;0.40;0.30;;;;;;;8.46;81.41;95029.31;5131667;27;20430;-59
2024/01/20 07:23:53;;;;;;;1.93;0.73;;;;;;;8.33;81.16;95046.44;5132177;28;20471;-58
2024/01/20 07:26:21;;;;;;;0.40;0.30;;;;;;;8.44;81.77;95050.72;5132298;27;20514;-57
2024/01/20 07:28:50;;;;;;;2.10;0.50;;;;;;;8.34;81.54;94992.59;5132564;27;20559;-57
2024/01/20 07:31:19;;;;;;;0.80;0.80;;;;;;;8.47;82.11;95050.19;5131887;28;20457;-58
2024/01/20 07:33:48;;;;;;;1.33;0.83;;;;;;;8.23;78.46;95052.47;5132375;27;20582;-57
2024/01/20 07:36:17;;;;;;;0.60;0.30;;;;;;;8.32;80.17;95040.38;5105864;28;20441;-59
2024/01/20 07:38:46;;;;;;;1.87;0.80;;;;;;;8.36;77.85;95068.91;5131140;27;20442;-57
2024/01/20 07:41:15;;;;;;;0.50;0.50;;;;;;;8.16;77.71;95066.97;5131359;27;20450;-58
2024/01/20 07:43:43;;;;;;;1.13;0.97;;;;;;;8.35;76.86;95077.91;5130824;28;20467;-57
2024/01/20 07:46:12;;;;;;;0.90;0.30;;;;;;;8.59;77.53;95077.16;5131567;27;20926;-58
2024/01/20 07:48:42;;;;;;;1.03;0.53;;;;;;;8.02;77.96;95079.09;5131208;28;20504;-57
2024/01/20 07:51:13;;;;;;;0.60;0.60;;;;;;;8.08;78.70;95078.84;5131596;27;20435;-59
2024/01/20 07:53:42;;;;;;;0.67;0.67;;;;;;;7.76;78.36;95040.44;5118112;27;20470;-58
2024/01/20 07:56:12;;;;;;;0.40;0.40;;;;;;;7.85;78.33;95076.63;5135498;27;20488;-57
2024/01/20 07:58:41;;;;;;;0.40;0.30;;;;;;;7.78;80.48;95070.00;5135291;27;20844;-58
2024/01/20 08:01:10;;;;;;;1.23;1.13;;;;;;;7.85;78.56;95081.91;5129450;27;20434;-59
2024/01/20 08:03:38;;;;;;;0.63;0.63;;;;;;;7.82;79.55;95073.72;5121378;27;20439;-58
2024/01/20 08:06:07;;;;;;;0.40;0.40;;;;;;;7.20;82.07;95013.81;5136365;27;20505;-59
2024/01/20 08:08:37;;;;;;;0.77;0.50;;;;;;;7.64;83.96;95109.22;5135635;27;20478;-58
2024/01/20 08:11:06;;;;;;;9.53;0.40;;;;;;;7.64;85.62;95112.66;5136098;27;20435;-58
2024/01/20 08:13:34;;;;;;;0.40;0.40;;;;;;;7.05;86.14;95050.63;5135818;27;20445;-58
2024/01/20 08:16:03;;;;;;;0.33;0.23;;;;;;;7.39;88.66;95116.97;5134260;27;20445;-58
2024/01/20 08:18:32;;;;;;;0.30;0.20;;;;;;;7.24;87.66;95122.16;5136024;27;20465;-59
2024/01/20 08:21:06;;;;;;;0.53;0.47;;;;;;;7.07;90.48;95124.13;5135567;27;20477;-58
2024/01/20 08:23:36;;;;;;;1.03;0.33;;;;;;;7.30;98.87;95111.41;5135224;27;20970;-58
2024/01/20 08:26:05;;;;;;;0.33;0.20;;;;;;;7.34;95.37;95136.19;5134883;27;20431;-58
2024/01/20 08:28:33;;;;;;;0.60;0.30;;;;;;;6.95;94.84;95129.59;5134660;27;20497;-58
2024/01/20 08:31:02;;;;;;;1.83;0.30;;;;;;;6.78;97.42;95136.81;5135044;27;20438;-58
2024/01/20 08:33:31;;;;;;;0.50;0.50;;;;;;;6.68;99.07;95163.06;5135568;27;20434;-58
2024/01/20 08:36:00;;;;;;;0.30;0.20;;;;;;;6.94;100.00;95155.13;5135201;27;20923;-57
2024/01/20 08:38:28;;;;;;;0.77;0.77;;;;;;;6.87;100.00;95162.44;5135288;27;20534;-57
2024/01/20 08:40:58;;;;;;;0.50;0.30;;;;;;;6.80;100.00;95163.69;5134505;27;20434;-57
2024/01/20 08:43:29;;;;;;;0.60;0.30;;;;;;;6.88;100.00;95142.94;5134918;27;20474;-58
2024/01/20 08:45:57;;;;;;;0.50;0.50;;;;;;;6.84;100.00;95170.84;5101082;28;20439;-58
2024/01/20 08:48:29;;;;;;;0.40;0.30;;;;;;;7.06;100.00;95162.84;5128180;27;20468;-58
2024/01/20 08:50:58;;;;;;;2.90;1.50;;;;;;;6.90;100.00;95179.59;5135058;27;20460;-58
2024/01/20 08:53:28;;;;;;;0.80;0.70;;;;;;;6.73;100.00;95169.13;5134601;27;20474;-58
2024/01/20 08:55:58;;;;;;;0.40;0.30;;;;;;;6.32;100.00;95149.47;5134809;27;20925;-58
2024/01/20 08:58:27;;;;;;;0.40;0.33;;;;;;;6.42;100.00;95163.81;5134111;27;20438;-57
2024/01/20 09:00:56;;;;;;;0.53;0.53;;;;;;;6.09;100.00;95123.47;5134563;27;20564;-58
2024/01/20 09:03:25;;;;;;;0.40;0.30;;;;;;;6.44;100.00;95193.31;5134747;27;20511;-58
2024/01/20 09:05:54;;;;;;;1.33;0.50;;;;;;;5.87;100.00;95100.81;5133555;27;20462;-58
2024/01/20 09:08:22;;;;;;;3.90;0.77;;;;;;;6.36;100.00;95200.59;5134340;27;20478;-58
2024/01/20 09:10:52;;;;;;;0.40;0.30;;;;;;;6.09;100.00;95204.22;5134758;27;20526;-58
2024/01/20 09:13:22;;;;;;;0.87;0.87;;;;;;;6.06;100.00;95208.13;5134116;27;20953;-58
2024/01/20 09:15:51;;;;;;;1.30;1.20;;;;;;;5.87;100.00;95177.09;5133995;27;20435;-58
2024/01/20 09:18:20;;;;;;;2.30;0.70;;;;;;;6.23;100.00;95210.69;5134629;27;20461;-58
2024/01/20 09:20:52;;;;;;;1.93;0.80;;;;;;;6.30;100.00;95185.78;5124276;27;20434;-57
2024/01/20 09:23:20;;;;;;;3.13;0.20;;;;;;;6.29;100.00;95210.53;5133894;27;20511;-57
2024/01/20 09:25:49;;;;;;;0.50;0.40;;;;;;;6.19;100.00;95217.50;5124913;27;20462;-57
2024/01/20 09:28:17;;;;;;;0.83;0.40;;;;;;;5.91;100.00;95160.56;5133715;27;20489;-58
2024/01/20 09:30:48;;;;;;;0.47;0.47;;;;;;;6.48;100.00;95220.75;5134417;27;20547;-58
2024/01/20 09:33:17;;;;;;;0.83;0.83;;;;;;;6.12;100.00;95225.56;5112415;27;20442;-57
2024/01/20 09:35:46;;;;;;;0.50;0.40;;;;;;;6.10;100.00;95211.84;5133650;27;20430;-58
2024/01/20 09:38:14;;;;;;;0.73;0.73;;;;;;;6.14;100.00;95220.88;5134220;27;20430;-57
2024/01/20 09:40:43;;;;;;;0.63;0.63;;;;;;;6.25;100.00;95222.56;5133502;27;20466;-58
2024/01/20 09:43:13;;;;;;;0.40;0.30;;;;;;;6.33;100.00;95218.72;5133908;27;20533;-58
2024/01/20 09:45:42;;;;;;;0.40;0.40;;;;;;;6.40;100.00;95216.69;5133819;27;20960;-58
2024/01/20 09:48:12;;;;;;;1.10;0.70;;;;;;;6.13;100.00;95210.56;5133596;27;20950;-58
2024/01/20 09:50:41;;;;;;;0.60;0.40;;;;;;;6.54;100.00;95222.38;5132507;27;20513;-57
2024/01/20 09:53:15;;;;;;;0.40;0.30;;;;;;;6.36;100.00;95218.22;5131715;27;20478;-57
2024/01/20 09:55:45;;;;;;;0.50;0.30;;;;;;;6.61;100.00;95217.72;5132210;27;20478;-57
2024/01/20 09:58:15;;;;;;;0.40;0.30;;;;;;;6.37;100.00;95211.94;5133880;27;20841;-57
2024/01/20 10:00:44;;;;;;;0.83;0.83;;;;;;;6.57;100.00;95211.38;5106772;27;20453;-57
2024/01/20 10:03:17;;;;;;;1.23;1.13;;;;;;;6.15;100.00;95211.09;5132638;27;20441;-58
2024/01/20 10:05:46;;;;;;;0.53;0.53;;;;;;;5.68;100.00;95134.47;5128903;27;20433;-58
2024/01/20 10:08:14;;;;;;;2.30;0.40;;;;;;;6.22;100.00;95212.53;5132919;27;20444;-59
2024/01/20 10:10:43;;;;;;;0.40;0.30;;;;;;;6.26;100.00;95208.38;5132663;27;20565;-58
2024/01/20 10:13:12;;;;;;;0.70;0.40;;;;;;;6.30;100.00;95209.47;5130226;27;20439;-57
2024/01/20 10:15:40;;;;;;;0.40;0.37;;;;;;;5.87;100.00;95191.00;5132810;27;20434;-56
2024/01/20 10:18:10;;;;;;;0.30;0.20;;;;;;;6.24;100.00;95220.19;5133206;27;20511;-57
2024/01/20 10:20:41;;;;;;;0.73;0.40;;;;;;;6.29;100.00;95223.69;5132913;27;20963;-57
2024/01/20 10:23:12;;;;;;;0.30;0.20;;;;;;;5.67;100.00;95154.69;5133823;27;20438;-58
2024/01/20 10:25:41;;;;;;;0.50;0.47;;;;;;;6.07;100.00;95243.91;5133152;27;20439;-58
2024/01/20 10:28:09;;;;;;;5.33;0.87;;;;;;;6.27;100.00;95230.25;5133100;27;20453;-58
2024/01/20 10:30:39;;;;;;;2.77;0.30;;;;;;;6.48;100.00;95226.78;5126365;27;20474;-57
2024/01/20 10:33:09;;;;;;;0.30;0.30;;;;;;;6.01;100.00;95209.88;5120815;27;20446;-57
2024/01/20 10:35:39;;;;;;;1.33;1.30;;;;;;;5.91;100.00;95215.81;5117223;27;20480;-58
2024/01/20 10:38:13;;;;;;;0.80;0.80;;;;;;;6.15;100.00;95195.31;5112587;28;20446;-57
2024/01/20 10:40:45;;;;;;;1.57;0.80;;;;;;;6.71;100.00;95231.00;5112289;28;20438;-58
2024/01/20 10:43:15;;;;;;;1.67;0.60;;;;;;;6.54;100.00;95191.59;5112399;28;20439;-58
2024/01/20 10:45:51;;;;;;;0.70;0.70;;;;;;;6.68;100.00;95227.03;5112192;28;20527;-58
2024/01/20 10:48:22;;;;;;;0.47;0.47;;;;;;;6.97;100.00;95222.34;5112283;28;20442;-57
2024/01/20 10:50:54;;;;;;;0.37;0.30;;;;;;;6.53;100.00;95218.19;5102929;27;20562;-57
2024/01/20 10:53:26;;;;;;;0.70;0.57;;;;;;;6.78;100.00;95223.72;5111802;28;20510;-58
2024/01/20 10:55:55;;;;;;;1.00;0.50;;;;;;;6.75;100.00;95217.13;5112471;28;20467;-59
2024/01/20 10:58:34;;;;;;;0.80;0.67;;;;;;;6.96;100.00;95229.44;5114350;27;20565;-57
2024/01/20 11:01:05;;;;;;;0.67;0.40;;;;;;;6.91;100.00;95228.59;5126266;27;20641;-57
2024/01/20 11:03:34;;;;;;;0.50;0.40;;;;;;;6.82;100.00;95230.09;5132862;27;20445;-58
2024/01/20 11:06:03;;;;;;;0.37;0.27;;;;;;;6.97;100.00;95227.59;5132249;27;20438;-57
2024/01/20 11:08:34;;;;;;;0.60;0.60;;;;;;;6.92;100.00;95188.03;5123177;27;20514;-57
2024/01/20 11:11:03;;;;;;;0.50;0.30;;;;;;;7.36;100.00;95226.38;5122835;27;20469;-59
2024/01/20 11:13:37;;;;;;;0.40;0.30;;;;;;;7.11;100.00;95204.28;5131771;27;20442;-57
2024/01/20 11:16:06;;;;;;;1.03;0.60;;;;;;;6.91;100.00;95223.31;5131668;27;20442;-57
2024/01/20 11:18:40;;;;;;;0.50;0.33;;;;;;;6.77;100.00;95209.75;5132553;27;20450;-58
2024/01/20 11:21:15;;;;;;;3.37;0.50;;;;;;;6.91;100.00;95228.59;5131997;27;20963;-56
2024/01/20 11:23:58;;;;;;;0.57;0.57;;;;;;;7.26;100.00;95230.78;5118549;27;20435;-57
2024/01/20 11:26:33;;;;;;;0.40;0.40;;;;;;;7.40;100.00;95232.75;5132177;28;20438;-57
2024/01/20 11:29:02;;;;;;;0.40;0.40;;;;;;;6.59;100.00;95164.53;5131161;27;20878;-58
2024/01/20 11:31:32;;;;;;;0.40;0.20;;;;;;;6.85;100.00;95192.72;5132416;27;20481;-59
2024/01/20 11:34:02;;;;;;;0.50;0.30;;;;;;;7.20;100.00;95237.84;5131619;28;20446;-59
2024/01/20 11:36:32;;;;;;;0.30;0.20;;;;;;;7.13;100.00;95239.09;5131924;28;20517;-58
2024/01/20 11:39:04;;;;;;;0.30;0.20;;;;;;;7.03;100.00;95235.28;5130893;28;20431;-59
2024/01/20 11:41:34;;;;;;;0.80;0.40;;;;;;;6.89;100.00;95241.22;5131071;28;20935;-59
2024/01/20 11:44:03;;;;;;;0.50;0.40;;;;;;;6.44;100.00;95230.97;5123766;27;20480;-59